sensor_id;sensor_type;location;lat;lon;timestamp;P1;durP1;ratioP1;P2;durP2;ratioP2
81160;SDS011;70637;48.514;14.500;2023-07-09T00:02:23;13.80;;;10.75;;
81160;SDS011;70637;48.514;14.500;2023-07-09T00:05:00;14.50;;;9.88;;
81160;SDS011;70637;48.514;14.500;2023-07-09T00:10:26;8.50;;;7.03;;
81160;SDS011;70637;48.514;14.500;2023-07-09T00:12:53;10.10;;;7.15;;
81160;SDS011;70637;48.514;14.500;2023-07-09T00:15:20;11.98;;;7.22;;
81160;SDS011;70637;48.514;14.500;2023-07-09T00:17:56;22.70;;;14.68;;
81160;SDS011;70637;48.514;14.500;2023-07-09T00:20:44;22.33;;;14.77;;
81160;SDS011;70637;48.514;14.500;2023-07-09T00:23:19;13.80;;;10.15;;
81160;SDS011;70637;48.514;14.500;2023-07-09T00:25:48;12.50;;;9.13;;
81160;SDS011;70637;48.514;14.500;2023-07-09T00:31:22;8.57;;;6.30;;
81160;SDS011;70637;48.514;14.500;2023-07-09T00:34:34;9.52;;;6.95;;
81160;SDS011;70637;48.514;14.500;2023-07-09T00:39:26;7.78;;;5.50;;
81160;SDS011;70637;48.514;14.500;2023-07-09T00:41:56;7.50;;;5.63;;
81160;SDS011;70637;48.514;14.500;2023-07-09T00:48:01;6.43;;;5.57;;
81160;SDS011;70637;48.514;14.500;2023-07-09T00:53:11;7.60;;;5.47;;
81160;SDS011;70637;48.514;14.500;2023-07-09T00:55:44;6.25;;;5.30;;
81160;SDS011;70637;48.514;14.500;2023-07-09T00:58:15;7.57;;;5.70;;
81160;SDS011;70637;48.514;14.500;2023-07-09T01:00:43;7.53;;;5.47;;
81160;SDS011;70637;48.514;14.500;2023-07-09T01:03:35;7.07;;;4.80;;
81160;SDS011;70637;48.514;14.500;2023-07-09T01:06:20;10.32;;;5.50;;
81160;SDS011;70637;48.514;14.500;2023-07-09T01:12:27;7.90;;;5.32;;
81160;SDS011;70637;48.514;14.500;2023-07-09T01:14:59;6.05;;;5.20;;
81160;SDS011;70637;48.514;14.500;2023-07-09T01:17:26;8.35;;;5.40;;
81160;SDS011;70637;48.514;14.500;2023-07-09T01:22:52;6.50;;;5.18;;
81160;SDS011;70637;48.514;14.500;2023-07-09T01:25:29;9.88;;;7.03;;
81160;SDS011;70637;48.514;14.500;2023-07-09T01:28:04;12.52;;;7.97;;
81160;SDS011;70637;48.514;14.500;2023-07-09T01:30:58;10.63;;;8.15;;
81160;SDS011;70637;48.514;14.500;2023-07-09T01:33:43;10.38;;;8.65;;
81160;SDS011;70637;48.514;14.500;2023-07-09T01:36:13;10.88;;;8.30;;
81160;SDS011;70637;48.514;14.500;2023-07-09T01:39:05;8.60;;;5.90;;
81160;SDS011;70637;48.514;14.500;2023-07-09T01:41:31;8.23;;;6.20;;
81160;SDS011;70637;48.514;14.500;2023-07-09T01:44:00;9.90;;;5.80;;
81160;SDS011;70637;48.514;14.500;2023-07-09T01:46:33;13.68;;;7.22;;
81160;SDS011;70637;48.514;14.500;2023-07-09T01:49:05;8.65;;;6.78;;
81160;SDS011;70637;48.514;14.500;2023-07-09T01:51:38;9.20;;;6.03;;
81160;SDS011;70637;48.514;14.500;2023-07-09T01:54:37;6.78;;;5.20;;
81160;SDS011;70637;48.514;14.500;2023-07-09T02:00:09;11.40;;;7.78;;
81160;SDS011;70637;48.514;14.500;2023-07-09T02:02:43;11.73;;;8.77;;
81160;SDS011;70637;48.514;14.500;2023-07-09T02:05:18;11.60;;;8.85;;
81160;SDS011;70637;48.514;14.500;2023-07-09T02:07:45;8.90;;;6.68;;
81160;SDS011;70637;48.514;14.500;2023-07-09T02:10:12;9.50;;;6.50;;
81160;SDS011;70637;48.514;14.500;2023-07-09T02:13:04;9.32;;;6.32;;
81160;SDS011;70637;48.514;14.500;2023-07-09T02:15:38;7.35;;;4.95;;
81160;SDS011;70637;48.514;14.500;2023-07-09T02:18:11;6.20;;;5.18;;
81160;SDS011;70637;48.514;14.500;2023-07-09T02:20:38;7.43;;;4.97;;
81160;SDS011;70637;48.514;14.500;2023-07-09T02:26:01;6.07;;;5.28;;
81160;SDS011;70637;48.514;14.500;2023-07-09T02:28:30;9.32;;;5.13;;
81160;SDS011;70637;48.514;14.500;2023-07-09T02:31:09;7.82;;;5.20;;
81160;SDS011;70637;48.514;14.500;2023-07-09T02:34:05;7.00;;;5.22;;
81160;SDS011;70637;48.514;14.500;2023-07-09T02:36:40;5.75;;;4.97;;
81160;SDS011;70637;48.514;14.500;2023-07-09T02:39:12;8.55;;;4.65;;
81160;SDS011;70637;48.514;14.500;2023-07-09T02:41:40;8.52;;;5.35;;
81160;SDS011;70637;48.514;14.500;2023-07-09T02:44:06;8.70;;;5.05;;
81160;SDS011;70637;48.514;14.500;2023-07-09T02:46:34;6.43;;;4.60;;
81160;SDS011;70637;48.514;14.500;2023-07-09T02:49:02;7.15;;;5.13;;
81160;SDS011;70637;48.514;14.500;2023-07-09T02:51:47;7.32;;;5.05;;
81160;SDS011;70637;48.514;14.500;2023-07-09T02:54:13;7.47;;;5.10;;
81160;SDS011;70637;48.514;14.500;2023-07-09T02:56:40;6.65;;;4.65;;
81160;SDS011;70637;48.514;14.500;2023-07-09T02:59:25;7.40;;;5.15;;
81160;SDS011;70637;48.514;14.500;2023-07-09T03:01:54;6.93;;;4.95;;
81160;SDS011;70637;48.514;14.500;2023-07-09T03:04:24;7.80;;;5.10;;
81160;SDS011;70637;48.514;14.500;2023-07-09T03:06:50;6.32;;;5.15;;
81160;SDS011;70637;48.514;14.500;2023-07-09T03:09:22;8.55;;;5.60;;
81160;SDS011;70637;48.514;14.500;2023-07-09T03:11:56;6.03;;;5.03;;
81160;SDS011;70637;48.514;14.500;2023-07-09T03:14:28;7.07;;;4.78;;
81160;SDS011;70637;48.514;14.500;2023-07-09T03:17:46;6.18;;;4.97;;
81160;SDS011;70637;48.514;14.500;2023-07-09T03:20:15;7.20;;;5.35;;
81160;SDS011;70637;48.514;14.500;2023-07-09T03:22:42;7.90;;;5.80;;
81160;SDS011;70637;48.514;14.500;2023-07-09T03:25:14;9.55;;;6.03;;
81160;SDS011;70637;48.514;14.500;2023-07-09T03:27:43;7.10;;;5.50;;
81160;SDS011;70637;48.514;14.500;2023-07-09T03:33:07;8.20;;;5.80;;
81160;SDS011;70637;48.514;14.500;2023-07-09T03:35:35;6.68;;;5.32;;
81160;SDS011;70637;48.514;14.500;2023-07-09T03:38:14;7.38;;;5.65;;
81160;SDS011;70637;48.514;14.500;2023-07-09T03:40:41;7.03;;;5.53;;
81160;SDS011;70637;48.514;14.500;2023-07-09T03:43:10;8.85;;;5.70;;
81160;SDS011;70637;48.514;14.500;2023-07-09T03:45:55;9.25;;;5.72;;
81160;SDS011;70637;48.514;14.500;2023-07-09T03:48:21;7.18;;;5.75;;
81160;SDS011;70637;48.514;14.500;2023-07-09T03:50:48;6.45;;;5.75;;
81160;SDS011;70637;48.514;14.500;2023-07-09T03:53:23;6.93;;;5.43;;
81160;SDS011;70637;48.514;14.500;2023-07-09T03:55:53;7.78;;;5.97;;
81160;SDS011;70637;48.514;14.500;2023-07-09T03:58:24;6.68;;;5.70;;
81160;SDS011;70637;48.514;14.500;2023-07-09T04:00:56;10.80;;;5.60;;
81160;SDS011;70637;48.514;14.500;2023-07-09T04:03:29;8.50;;;6.07;;
81160;SDS011;70637;48.514;14.500;2023-07-09T04:08:24;7.97;;;5.72;;
81160;SDS011;70637;48.514;14.500;2023-07-09T04:10:52;7.35;;;6.22;;
81160;SDS011;70637;48.514;14.500;2023-07-09T04:15:48;8.10;;;6.20;;
81160;SDS011;70637;48.514;14.500;2023-07-09T04:18:15;9.90;;;5.88;;
81160;SDS011;70637;48.514;14.500;2023-07-09T04:20:41;7.25;;;5.60;;
81160;SDS011;70637;48.514;14.500;2023-07-09T04:23:14;8.65;;;6.22;;
81160;SDS011;70637;48.514;14.500;2023-07-09T04:25:44;10.45;;;6.32;;
81160;SDS011;70637;48.514;14.500;2023-07-09T04:28:10;11.07;;;6.00;;
81160;SDS011;70637;48.514;14.500;2023-07-09T04:30:46;7.28;;;5.07;;
81160;SDS011;70637;48.514;14.500;2023-07-09T04:33:17;6.40;;;4.47;;
81160;SDS011;70637;48.514;14.500;2023-07-09T04:35:45;9.05;;;4.78;;
81160;SDS011;70637;48.514;14.500;2023-07-09T04:38:32;8.20;;;4.93;;
81160;SDS011;70637;48.514;14.500;2023-07-09T04:40:58;6.63;;;5.20;;
81160;SDS011;70637;48.514;14.500;2023-07-09T04:43:30;7.25;;;5.05;;
81160;SDS011;70637;48.514;14.500;2023-07-09T04:51:53;6.15;;;4.93;;
81160;SDS011;70637;48.514;14.500;2023-07-09T04:54:37;5.53;;;4.85;;
81160;SDS011;70637;48.514;14.500;2023-07-09T04:57:10;6.10;;;5.15;;
81160;SDS011;70637;48.514;14.500;2023-07-09T04:59:40;8.57;;;5.05;;
81160;SDS011;70637;48.514;14.500;2023-07-09T05:02:07;6.63;;;5.28;;
81160;SDS011;70637;48.514;14.500;2023-07-09T05:04:33;6.05;;;4.90;;
81160;SDS011;70637;48.514;14.500;2023-07-09T05:07:02;8.32;;;5.30;;
81160;SDS011;70637;48.514;14.500;2023-07-09T05:10:17;6.15;;;5.50;;
81160;SDS011;70637;48.514;14.500;2023-07-09T05:12:47;6.78;;;5.57;;
81160;SDS011;70637;48.514;14.500;2023-07-09T05:15:28;9.15;;;5.47;;
81160;SDS011;70637;48.514;14.500;2023-07-09T05:18:00;10.70;;;5.50;;
81160;SDS011;70637;48.514;14.500;2023-07-09T05:20:30;13.25;;;5.35;;
81160;SDS011;70637;48.514;14.500;2023-07-09T05:22:56;10.90;;;5.57;;
81160;SDS011;70637;48.514;14.500;2023-07-09T05:25:25;7.47;;;5.60;;
81160;SDS011;70637;48.514;14.500;2023-07-09T05:28:05;9.98;;;5.63;;
81160;SDS011;70637;48.514;14.500;2023-07-09T05:30:35;6.53;;;5.43;;
81160;SDS011;70637;48.514;14.500;2023-07-09T05:33:06;8.35;;;5.05;;
81160;SDS011;70637;48.514;14.500;2023-07-09T05:35:39;8.85;;;5.60;;
81160;SDS011;70637;48.514;14.500;2023-07-09T05:38:12;8.43;;;5.57;;
81160;SDS011;70637;48.514;14.500;2023-07-09T05:40:41;10.00;;;5.50;;
81160;SDS011;70637;48.514;14.500;2023-07-09T05:43:09;8.25;;;5.40;;
81160;SDS011;70637;48.514;14.500;2023-07-09T05:45:38;8.05;;;5.68;;
81160;SDS011;70637;48.514;14.500;2023-07-09T05:48:16;10.75;;;5.30;;
81160;SDS011;70637;48.514;14.500;2023-07-09T05:50:52;8.57;;;4.95;;
81160;SDS011;70637;48.514;14.500;2023-07-09T05:53:26;8.20;;;5.43;;
81160;SDS011;70637;48.514;14.500;2023-07-09T05:55:58;7.05;;;5.53;;
81160;SDS011;70637;48.514;14.500;2023-07-09T05:58:36;6.05;;;5.28;;
81160;SDS011;70637;48.514;14.500;2023-07-09T06:01:41;10.45;;;5.40;;
81160;SDS011;70637;48.514;14.500;2023-07-09T06:04:07;8.63;;;5.00;;
81160;SDS011;70637;48.514;14.500;2023-07-09T06:06:41;8.07;;;5.13;;
81160;SDS011;70637;48.514;14.500;2023-07-09T06:09:20;5.40;;;4.90;;
81160;SDS011;70637;48.514;14.500;2023-07-09T06:11:51;6.53;;;5.40;;
81160;SDS011;70637;48.514;14.500;2023-07-09T06:14:21;6.55;;;4.80;;
81160;SDS011;70637;48.514;14.500;2023-07-09T06:16:47;6.60;;;5.20;;
81160;SDS011;70637;48.514;14.500;2023-07-09T06:19:13;7.28;;;5.05;;
81160;SDS011;70637;48.514;14.500;2023-07-09T06:21:44;7.22;;;5.45;;
81160;SDS011;70637;48.514;14.500;2023-07-09T06:24:38;8.10;;;5.10;;
81160;SDS011;70637;48.514;14.500;2023-07-09T06:27:06;5.82;;;4.80;;
81160;SDS011;70637;48.514;14.500;2023-07-09T06:29:39;7.68;;;4.70;;
81160;SDS011;70637;48.514;14.500;2023-07-09T06:32:05;8.75;;;5.05;;
81160;SDS011;70637;48.514;14.500;2023-07-09T06:34:34;6.15;;;4.82;;
81160;SDS011;70637;48.514;14.500;2023-07-09T06:37:03;6.25;;;4.68;;
81160;SDS011;70637;48.514;14.500;2023-07-09T06:42:38;8.85;;;4.90;;
81160;SDS011;70637;48.514;14.500;2023-07-09T06:45:10;11.50;;;5.28;;
81160;SDS011;70637;48.514;14.500;2023-07-09T06:47:45;6.60;;;4.18;;
81160;SDS011;70637;48.514;14.500;2023-07-09T06:50:22;5.97;;;3.95;;
81160;SDS011;70637;48.514;14.500;2023-07-09T06:53:18;7.10;;;4.15;;
81160;SDS011;70637;48.514;14.500;2023-07-09T06:55:46;5.68;;;3.88;;
81160;SDS011;70637;48.514;14.500;2023-07-09T06:58:17;5.43;;;3.50;;
81160;SDS011;70637;48.514;14.500;2023-07-09T07:00:59;5.22;;;3.75;;
81160;SDS011;70637;48.514;14.500;2023-07-09T07:03:39;8.15;;;3.88;;
81160;SDS011;70637;48.514;14.500;2023-07-09T07:06:23;6.55;;;3.58;;
81160;SDS011;70637;48.514;14.500;2023-07-09T07:09:17;6.13;;;3.63;;
81160;SDS011;70637;48.514;14.500;2023-07-09T07:12:05;6.38;;;4.05;;
81160;SDS011;70637;48.514;14.500;2023-07-09T07:14:35;6.47;;;3.88;;
81160;SDS011;70637;48.514;14.500;2023-07-09T07:17:44;5.32;;;3.65;;
81160;SDS011;70637;48.514;14.500;2023-07-09T07:20:26;6.93;;;3.78;;
81160;SDS011;70637;48.514;14.500;2023-07-09T07:23:01;5.90;;;3.83;;
81160;SDS011;70637;48.514;14.500;2023-07-09T07:25:44;7.95;;;3.80;;
81160;SDS011;70637;48.514;14.500;2023-07-09T07:28:20;5.85;;;3.65;;
81160;SDS011;70637;48.514;14.500;2023-07-09T07:31:05;4.75;;;3.65;;
81160;SDS011;70637;48.514;14.500;2023-07-09T07:33:51;5.10;;;3.80;;
81160;SDS011;70637;48.514;14.500;2023-07-09T07:36:30;8.38;;;4.10;;
81160;SDS011;70637;48.514;14.500;2023-07-09T07:39:05;7.38;;;3.88;;
81160;SDS011;70637;48.514;14.500;2023-07-09T07:41:40;5.22;;;3.75;;
81160;SDS011;70637;48.514;14.500;2023-07-09T07:44:17;6.15;;;3.50;;
81160;SDS011;70637;48.514;14.500;2023-07-09T07:46:43;6.25;;;3.90;;
81160;SDS011;70637;48.514;14.500;2023-07-09T07:49:18;4.40;;;3.60;;
81160;SDS011;70637;48.514;14.500;2023-07-09T07:52:19;7.65;;;3.65;;
81160;SDS011;70637;48.514;14.500;2023-07-09T07:55:05;5.70;;;3.65;;
81160;SDS011;70637;48.514;14.500;2023-07-09T07:57:36;7.65;;;3.80;;
81160;SDS011;70637;48.514;14.500;2023-07-09T08:03:47;5.97;;;3.70;;
81160;SDS011;70637;48.514;14.500;2023-07-09T08:06:26;6.18;;;3.92;;
81160;SDS011;70637;48.514;14.500;2023-07-09T08:09:05;9.05;;;4.25;;
81160;SDS011;70637;48.514;14.500;2023-07-09T08:11:42;6.50;;;4.07;;
81160;SDS011;70637;48.514;14.500;2023-07-09T08:14:08;5.60;;;4.00;;
81160;SDS011;70637;48.514;14.500;2023-07-09T08:16:38;7.35;;;4.60;;
81160;SDS011;70637;48.514;14.500;2023-07-09T08:19:04;9.55;;;4.18;;
81160;SDS011;70637;48.514;14.500;2023-07-09T08:21:31;5.40;;;3.70;;
81160;SDS011;70637;48.514;14.500;2023-07-09T08:24:06;7.20;;;4.28;;
81160;SDS011;70637;48.514;14.500;2023-07-09T08:26:35;6.10;;;4.00;;
81160;SDS011;70637;48.514;14.500;2023-07-09T08:29:03;5.93;;;4.00;;
81160;SDS011;70637;48.514;14.500;2023-07-09T08:31:32;7.28;;;4.20;;
81160;SDS011;70637;48.514;14.500;2023-07-09T08:33:59;5.80;;;4.07;;
81160;SDS011;70637;48.514;14.500;2023-07-09T08:36:29;10.85;;;4.43;;
81160;SDS011;70637;48.514;14.500;2023-07-09T08:38:56;5.97;;;4.22;;
81160;SDS011;70637;48.514;14.500;2023-07-09T08:41:45;7.60;;;4.65;;
81160;SDS011;70637;48.514;14.500;2023-07-09T08:44:21;6.53;;;3.92;;
81160;SDS011;70637;48.514;14.500;2023-07-09T08:47:12;7.00;;;4.13;;
81160;SDS011;70637;48.514;14.500;2023-07-09T08:49:56;6.75;;;3.67;;
81160;SDS011;70637;48.514;14.500;2023-07-09T08:53:17;5.75;;;4.18;;
81160;SDS011;70637;48.514;14.500;2023-07-09T08:55:58;6.07;;;3.50;;
81160;SDS011;70637;48.514;14.500;2023-07-09T08:58:29;7.60;;;4.20;;
81160;SDS011;70637;48.514;14.500;2023-07-09T09:01:01;7.78;;;4.10;;
81160;SDS011;70637;48.514;14.500;2023-07-09T09:03:49;7.40;;;4.22;;
81160;SDS011;70637;48.514;14.500;2023-07-09T09:07:07;8.20;;;4.75;;
81160;SDS011;70637;48.514;14.500;2023-07-09T09:09:36;7.57;;;4.05;;
81160;SDS011;70637;48.514;14.500;2023-07-09T09:12:20;9.80;;;5.80;;
81160;SDS011;70637;48.514;14.500;2023-07-09T09:15:19;7.85;;;4.18;;
81160;SDS011;70637;48.514;14.500;2023-07-09T09:17:58;6.05;;;4.05;;
81160;SDS011;70637;48.514;14.500;2023-07-09T09:20:37;6.28;;;4.22;;
81160;SDS011;70637;48.514;14.500;2023-07-09T09:25:45;5.80;;;4.10;;
81160;SDS011;70637;48.514;14.500;2023-07-09T09:28:41;5.38;;;4.20;;
81160;SDS011;70637;48.514;14.500;2023-07-09T09:31:10;11.80;;;4.25;;
81160;SDS011;70637;48.514;14.500;2023-07-09T09:33:58;7.22;;;4.25;;
81160;SDS011;70637;48.514;14.500;2023-07-09T09:36:27;7.30;;;4.80;;
81160;SDS011;70637;48.514;14.500;2023-07-09T09:38:53;7.43;;;4.28;;
81160;SDS011;70637;48.514;14.500;2023-07-09T09:41:44;6.97;;;4.25;;
81160;SDS011;70637;48.514;14.500;2023-07-09T09:44:23;7.28;;;4.22;;
81160;SDS011;70637;48.514;14.500;2023-07-09T09:47:14;8.07;;;4.50;;
81160;SDS011;70637;48.514;14.500;2023-07-09T09:49:44;6.78;;;3.97;;
81160;SDS011;70637;48.514;14.500;2023-07-09T09:52:26;7.28;;;4.10;;
81160;SDS011;70637;48.514;14.500;2023-07-09T09:55:32;5.25;;;3.90;;
81160;SDS011;70637;48.514;14.500;2023-07-09T09:58:30;4.57;;;3.85;;
81160;SDS011;70637;48.514;14.500;2023-07-09T10:01:37;5.80;;;4.60;;
81160;SDS011;70637;48.514;14.500;2023-07-09T10:04:08;7.78;;;3.83;;
81160;SDS011;70637;48.514;14.500;2023-07-09T10:07:17;6.50;;;4.05;;
81160;SDS011;70637;48.514;14.500;2023-07-09T10:09:51;7.68;;;4.22;;
81160;SDS011;70637;48.514;14.500;2023-07-09T10:12:44;8.38;;;4.38;;
81160;SDS011;70637;48.514;14.500;2023-07-09T10:18:09;6.57;;;4.70;;
81160;SDS011;70637;48.514;14.500;2023-07-09T10:20:45;7.13;;;4.13;;
81160;SDS011;70637;48.514;14.500;2023-07-09T10:26:02;8.20;;;4.60;;
81160;SDS011;70637;48.514;14.500;2023-07-09T10:34:21;8.77;;;4.82;;
81160;SDS011;70637;48.514;14.500;2023-07-09T10:39:42;6.47;;;4.60;;
81160;SDS011;70637;48.514;14.500;2023-07-09T10:42:21;8.18;;;4.50;;
81160;SDS011;70637;48.514;14.500;2023-07-09T10:44:49;7.20;;;4.47;;
81160;SDS011;70637;48.514;14.500;2023-07-09T10:50:32;10.32;;;4.75;;
81160;SDS011;70637;48.514;14.500;2023-07-09T10:56:10;7.07;;;4.10;;
81160;SDS011;70637;48.514;14.500;2023-07-09T11:01:10;5.90;;;4.60;;
81160;SDS011;70637;48.514;14.500;2023-07-09T11:03:49;8.70;;;5.00;;
81160;SDS011;70637;48.514;14.500;2023-07-09T11:06:19;9.80;;;5.00;;
81160;SDS011;70637;48.514;14.500;2023-07-09T11:08:51;9.60;;;4.97;;
81160;SDS011;70637;48.514;14.500;2023-07-09T11:14:23;10.18;;;4.55;;
81160;SDS011;70637;48.514;14.500;2023-07-09T11:17:02;7.63;;;4.30;;
81160;SDS011;70637;48.514;14.500;2023-07-09T11:19:29;6.32;;;4.25;;
81160;SDS011;70637;48.514;14.500;2023-07-09T11:21:58;8.63;;;4.78;;
81160;SDS011;70637;48.514;14.500;2023-07-09T11:25:08;5.95;;;4.50;;
81160;SDS011;70637;48.514;14.500;2023-07-09T11:27:52;7.70;;;4.80;;
81160;SDS011;70637;48.514;14.500;2023-07-09T11:30:23;7.63;;;4.47;;
81160;SDS011;70637;48.514;14.500;2023-07-09T11:32:56;10.43;;;5.13;;
81160;SDS011;70637;48.514;14.500;2023-07-09T11:35:24;9.05;;;5.32;;
81160;SDS011;70637;48.514;14.500;2023-07-09T11:37:51;8.98;;;5.50;;
81160;SDS011;70637;48.514;14.500;2023-07-09T11:40:20;7.82;;;5.57;;
81160;SDS011;70637;48.514;14.500;2023-07-09T11:42:57;8.88;;;5.30;;
81160;SDS011;70637;48.514;14.500;2023-07-09T11:45:33;9.05;;;5.30;;
81160;SDS011;70637;48.514;14.500;2023-07-09T11:50:45;11.02;;;4.85;;
81160;SDS011;70637;48.514;14.500;2023-07-09T11:56:20;6.25;;;5.00;;
81160;SDS011;70637;48.514;14.500;2023-07-09T11:58:48;9.25;;;4.80;;
81160;SDS011;70637;48.514;14.500;2023-07-09T12:01:16;8.23;;;4.70;;
81160;SDS011;70637;48.514;14.500;2023-07-09T12:03:44;8.73;;;4.47;;
81160;SDS011;70637;48.514;14.500;2023-07-09T12:09:09;8.60;;;4.60;;
81160;SDS011;70637;48.514;14.500;2023-07-09T12:11:46;5.65;;;4.47;;
81160;SDS011;70637;48.514;14.500;2023-07-09T12:14:20;6.30;;;4.75;;
81160;SDS011;70637;48.514;14.500;2023-07-09T12:16:48;8.65;;;5.22;;
81160;SDS011;70637;48.514;14.500;2023-07-09T12:19:17;11.68;;;5.05;;
81160;SDS011;70637;48.514;14.500;2023-07-09T12:21:48;5.93;;;4.55;;
81160;SDS011;70637;48.514;14.500;2023-07-09T12:26:52;7.15;;;4.53;;
81160;SDS011;70637;48.514;14.500;2023-07-09T12:29:27;6.47;;;4.65;;
81160;SDS011;70637;48.514;14.500;2023-07-09T12:34:24;8.80;;;4.60;;
81160;SDS011;70637;48.514;14.500;2023-07-09T12:36:50;7.53;;;4.43;;
81160;SDS011;70637;48.514;14.500;2023-07-09T12:39:25;8.90;;;5.03;;
81160;SDS011;70637;48.514;14.500;2023-07-09T12:41:56;7.43;;;4.70;;
81160;SDS011;70637;48.514;14.500;2023-07-09T12:44:24;6.60;;;4.32;;
81160;SDS011;70637;48.514;14.500;2023-07-09T12:46:52;7.05;;;4.43;;
81160;SDS011;70637;48.514;14.500;2023-07-09T12:49:22;7.35;;;4.75;;
81160;SDS011;70637;48.514;14.500;2023-07-09T12:54:17;6.60;;;4.60;;
81160;SDS011;70637;48.514;14.500;2023-07-09T12:56:44;7.30;;;5.45;;
81160;SDS011;70637;48.514;14.500;2023-07-09T12:59:18;10.82;;;5.03;;
81160;SDS011;70637;48.514;14.500;2023-07-09T13:01:50;10.68;;;4.55;;
81160;SDS011;70637;48.514;14.500;2023-07-09T13:04:27;16.15;;;6.93;;
81160;SDS011;70637;48.514;14.500;2023-07-09T13:06:55;7.30;;;4.50;;
81160;SDS011;70637;48.514;14.500;2023-07-09T13:09:24;8.55;;;4.72;;
81160;SDS011;70637;48.514;14.500;2023-07-09T13:11:51;9.20;;;4.45;;
81160;SDS011;70637;48.514;14.500;2023-07-09T13:14:20;5.20;;;4.28;;
81160;SDS011;70637;48.514;14.500;2023-07-09T13:16:50;7.80;;;4.43;;
81160;SDS011;70637;48.514;14.500;2023-07-09T13:19:17;5.65;;;4.50;;
81160;SDS011;70637;48.514;14.500;2023-07-09T13:21:43;5.85;;;4.20;;
81160;SDS011;70637;48.514;14.500;2023-07-09T13:24:13;7.43;;;4.25;;
81160;SDS011;70637;48.514;14.500;2023-07-09T13:26:49;6.35;;;3.95;;
81160;SDS011;70637;48.514;14.500;2023-07-09T13:29:17;5.75;;;4.10;;
81160;SDS011;70637;48.514;14.500;2023-07-09T13:31:44;5.80;;;4.05;;
81160;SDS011;70637;48.514;14.500;2023-07-09T13:34:21;5.53;;;3.97;;
81160;SDS011;70637;48.514;14.500;2023-07-09T13:36:52;8.82;;;3.97;;
81160;SDS011;70637;48.514;14.500;2023-07-09T13:39:21;5.88;;;4.25;;
81160;SDS011;70637;48.514;14.500;2023-07-09T13:41:48;5.60;;;4.07;;
81160;SDS011;70637;48.514;14.500;2023-07-09T13:44:17;6.43;;;3.90;;
81160;SDS011;70637;48.514;14.500;2023-07-09T13:46:45;5.65;;;3.90;;
81160;SDS011;70637;48.514;14.500;2023-07-09T13:49:12;4.97;;;4.40;;
81160;SDS011;70637;48.514;14.500;2023-07-09T13:51:40;4.45;;;3.83;;
81160;SDS011;70637;48.514;14.500;2023-07-09T13:54:21;6.65;;;4.22;;
81160;SDS011;70637;48.514;14.500;2023-07-09T13:56:48;10.35;;;4.25;;
81160;SDS011;70637;48.514;14.500;2023-07-09T13:59:16;9.52;;;4.22;;
81160;SDS011;70637;48.514;14.500;2023-07-09T14:01:43;7.65;;;4.22;;
81160;SDS011;70637;48.514;14.500;2023-07-09T14:04:13;12.15;;;4.20;;
81160;SDS011;70637;48.514;14.500;2023-07-09T14:06:41;10.65;;;4.47;;
81160;SDS011;70637;48.514;14.500;2023-07-09T14:09:08;11.65;;;4.40;;
81160;SDS011;70637;48.514;14.500;2023-07-09T14:11:58;12.63;;;4.45;;
81160;SDS011;70637;48.514;14.500;2023-07-09T14:14:32;5.43;;;4.20;;
81160;SDS011;70637;48.514;14.500;2023-07-09T14:16:58;5.68;;;3.63;;
81160;SDS011;70637;48.514;14.500;2023-07-09T14:19:24;6.82;;;4.28;;
81160;SDS011;70637;48.514;14.500;2023-07-09T14:21:51;11.43;;;4.15;;
81160;SDS011;70637;48.514;14.500;2023-07-09T14:26:49;8.02;;;4.20;;
81160;SDS011;70637;48.514;14.500;2023-07-09T14:29:19;8.48;;;4.10;;
81160;SDS011;70637;48.514;14.500;2023-07-09T14:31:46;7.50;;;4.03;;
81160;SDS011;70637;48.514;14.500;2023-07-09T14:36:43;7.55;;;4.00;;
81160;SDS011;70637;48.514;14.500;2023-07-09T14:39:09;8.07;;;3.97;;
81160;SDS011;70637;48.514;14.500;2023-07-09T14:41:35;7.93;;;4.40;;
81160;SDS011;70637;48.514;14.500;2023-07-09T14:44:01;7.47;;;4.30;;
81160;SDS011;70637;48.514;14.500;2023-07-09T14:46:27;11.02;;;4.20;;
81160;SDS011;70637;48.514;14.500;2023-07-09T14:48:53;8.07;;;4.40;;
81160;SDS011;70637;48.514;14.500;2023-07-09T14:51:18;10.68;;;4.43;;
81160;SDS011;70637;48.514;14.500;2023-07-09T14:53:45;8.20;;;4.15;;
81160;SDS011;70637;48.514;14.500;2023-07-09T14:56:11;9.10;;;4.47;;
81160;SDS011;70637;48.514;14.500;2023-07-09T14:58:38;11.73;;;4.20;;
81160;SDS011;70637;48.514;14.500;2023-07-09T15:01:04;12.25;;;4.60;;
81160;SDS011;70637;48.514;14.500;2023-07-09T15:03:34;25.02;;;5.05;;
81160;SDS011;70637;48.514;14.500;2023-07-09T15:06:00;17.08;;;4.60;;
81160;SDS011;70637;48.514;14.500;2023-07-09T15:08:27;15.15;;;4.90;;
81160;SDS011;70637;48.514;14.500;2023-07-09T15:10:53;18.30;;;4.43;;
81160;SDS011;70637;48.514;14.500;2023-07-09T15:13:24;15.10;;;4.90;;
81160;SDS011;70637;48.514;14.500;2023-07-09T15:15:54;16.23;;;4.20;;
81160;SDS011;70637;48.514;14.500;2023-07-09T15:18:19;7.25;;;4.28;;
81160;SDS011;70637;48.514;14.500;2023-07-09T15:20:52;7.15;;;4.10;;
81160;SDS011;70637;48.514;14.500;2023-07-09T15:23:22;12.57;;;4.43;;
81160;SDS011;70637;48.514;14.500;2023-07-09T15:25:49;8.20;;;4.13;;
81160;SDS011;70637;48.514;14.500;2023-07-09T15:28:15;5.65;;;4.55;;
81160;SDS011;70637;48.514;14.500;2023-07-09T15:30:41;15.25;;;4.55;;
81160;SDS011;70637;48.514;14.500;2023-07-09T15:33:17;5.35;;;4.00;;
81160;SDS011;70637;48.514;14.500;2023-07-09T15:35:45;5.63;;;4.07;;
81160;SDS011;70637;48.514;14.500;2023-07-09T15:38:25;8.07;;;4.32;;
81160;SDS011;70637;48.514;14.500;2023-07-09T15:40:55;5.03;;;3.70;;
81160;SDS011;70637;48.514;14.500;2023-07-09T15:43:21;4.75;;;3.67;;
81160;SDS011;70637;48.514;14.500;2023-07-09T15:45:51;7.45;;;5.07;;
81160;SDS011;70637;48.514;14.500;2023-07-09T15:48:23;6.10;;;4.38;;
81160;SDS011;70637;48.514;14.500;2023-07-09T15:50:52;9.38;;;4.32;;
81160;SDS011;70637;48.514;14.500;2023-07-09T15:53:19;5.55;;;4.43;;
81160;SDS011;70637;48.514;14.500;2023-07-09T15:55:46;5.57;;;4.05;;
81160;SDS011;70637;48.514;14.500;2023-07-09T15:58:16;10.23;;;4.25;;
81160;SDS011;70637;48.514;14.500;2023-07-09T16:00:46;7.35;;;4.57;;
81160;SDS011;70637;48.514;14.500;2023-07-09T16:03:12;5.32;;;4.55;;
81160;SDS011;70637;48.514;14.500;2023-07-09T16:05:38;4.72;;;3.85;;
81160;SDS011;70637;48.514;14.500;2023-07-09T16:08:03;5.60;;;4.28;;
81160;SDS011;70637;48.514;14.500;2023-07-09T16:10:30;7.25;;;4.20;;
81160;SDS011;70637;48.514;14.500;2023-07-09T16:12:56;6.82;;;4.55;;
81160;SDS011;70637;48.514;14.500;2023-07-09T16:15:23;7.03;;;4.35;;
81160;SDS011;70637;48.514;14.500;2023-07-09T16:17:50;5.68;;;4.50;;
81160;SDS011;70637;48.514;14.500;2023-07-09T16:20:17;7.32;;;4.30;;
81160;SDS011;70637;48.514;14.500;2023-07-09T16:22:49;6.05;;;4.38;;
81160;SDS011;70637;48.514;14.500;2023-07-09T16:25:16;6.18;;;4.25;;
81160;SDS011;70637;48.514;14.500;2023-07-09T16:30:16;9.27;;;4.43;;
81160;SDS011;70637;48.514;14.500;2023-07-09T16:32:47;6.10;;;4.55;;
81160;SDS011;70637;48.514;14.500;2023-07-09T16:35:13;5.57;;;4.10;;
81160;SDS011;70637;48.514;14.500;2023-07-09T16:37:41;7.53;;;4.63;;
81160;SDS011;70637;48.514;14.500;2023-07-09T16:40:15;6.07;;;4.57;;
81160;SDS011;70637;48.514;14.500;2023-07-09T16:42:43;5.35;;;4.40;;
81160;SDS011;70637;48.514;14.500;2023-07-09T16:45:10;6.53;;;4.18;;
81160;SDS011;70637;48.514;14.500;2023-07-09T16:47:38;8.10;;;4.43;;
81160;SDS011;70637;48.514;14.500;2023-07-09T16:50:04;5.05;;;4.28;;
81160;SDS011;70637;48.514;14.500;2023-07-09T16:52:30;6.43;;;4.45;;